Time;durP1;ratioP1;P1;durP2;ratioP2;P2;SDS_P1;SDS_P2;PMS_P1;PMS_P2;Temp;Humidity;BMP_temperature;BMP_pressure;BME280_temperature;BME280_humidity;BME280_pressure;Samples;Min_cycle;Max_cycle;Signal;HPM_P1;HPM_P2
2021/04/05 00:01:08;;;;;;;16.33;7.60;;;3.40;98.50;;;4.52;100.00;97949.97;5052104;28;20524;-79
2021/04/05 00:03:36;;;;;;;19.53;9.17;;;3.50;98.90;;;4.52;100.00;97951.75;5050255;28;20441;-79
2021/04/05 00:06:03;;;;;;;17.23;7.40;;;3.60;98.60;;;4.37;100.00;97943.72;5052733;28;20499;-80
2021/04/05 00:08:32;;;;;;;25.00;8.17;;;3.40;98.80;;;4.48;100.00;97934.88;5055870;28;20563;-79
2021/04/05 00:11:00;;;;;;;14.60;7.33;;;3.50;98.90;;;4.37;100.00;97938.53;5056670;28;20857;-79
2021/04/05 00:13:33;;;;;;;14.00;6.90;;;3.40;98.40;;;4.43;100.00;97939.72;5049580;28;20530;-79
2021/04/05 00:16:01;;;;;;;13.20;7.07;;;3.50;98.70;;;4.23;100.00;97928.75;5056781;28;20476;-79
2021/04/05 00:18:29;;;;;;;20.83;8.43;;;3.30;98.70;;;4.23;100.00;97923.56;5056282;28;20437;-79
2021/04/05 00:21:04;;;;;;;19.37;6.23;;;3.30;99.20;;;4.42;100.00;97922.56;5053885;28;20455;-79
2021/04/05 00:23:33;;;;;;;9.33;6.37;;;3.50;98.90;;;4.40;100.00;97914.16;5054685;28;20440;-79
2021/04/05 00:26:00;;;;;;;12.57;6.63;;;3.50;98.80;;;4.43;100.00;97909.47;5053413;28;20587;-79
2021/04/05 00:28:28;;;;;;;20.70;6.87;;;3.50;98.60;;;4.40;100.00;97904.63;5057390;28;20456;-79
2021/04/05 00:30:56;;;;;;;15.53;7.33;;;3.50;98.80;;;4.48;100.00;97891.69;5054040;28;20806;-79
2021/04/05 00:33:24;;;;;;;17.83;7.47;;;3.70;98.30;;;4.49;100.00;97877.81;5056656;28;21457;-79
2021/04/05 00:35:52;;;;;;;13.10;7.17;;;3.60;98.10;;;4.44;100.00;97869.66;5054419;28;20445;-79
2021/04/05 00:38:20;;;;;;;16.30;6.53;;;3.50;98.30;;;4.42;100.00;97865.63;5056069;28;20432;-79
2021/04/05 00:40:53;;;;;;;23.73;8.40;;;3.50;98.40;;;4.22;100.00;97859.84;5051038;28;20485;-79
2021/04/05 00:43:22;;;;;;;14.10;7.97;;;3.30;98.70;;;4.20;100.00;97855.78;5053189;28;20453;-79
2021/04/05 00:45:51;;;;;;;17.83;7.60;;;3.30;99.20;;;4.20;100.00;97846.22;5052191;28;20535;-79
2021/04/05 00:48:19;;;;;;;20.07;7.80;;;3.30;98.90;;;4.26;100.00;97834.47;5054789;28;20793;-79
2021/04/05 00:50:52;;;;;;;17.80;7.77;;;3.30;99.00;;;4.20;100.00;97825.53;5051489;28;20449;-80
2021/04/05 00:53:24;;;;;;;20.23;7.73;;;3.30;99.10;;;4.28;100.00;97817.81;5056666;28;20433;-79
2021/04/05 00:55:53;;;;;;;20.90;8.00;;;3.40;99.00;;;4.24;100.00;97810.50;5056376;28;20456;-80
2021/04/05 00:58:21;;;;;;;15.60;6.80;;;3.30;98.80;;;4.21;100.00;97811.63;5054002;28;20449;-79
2021/04/05 01:00:52;;;;;;;20.73;6.83;;;3.30;98.70;;;4.24;100.00;97800.97;5053780;28;20449;-79
2021/04/05 01:03:23;;;;;;;13.50;6.90;;;3.40;98.70;;;4.11;100.00;97800.56;5051673;28;20448;-79
2021/04/05 01:05:53;;;;;;;16.43;7.00;;;3.20;98.80;;;4.15;100.00;97801.91;5056889;28;20987;-79
2021/04/05 01:08:22;;;;;;;19.20;7.60;;;3.20;99.10;;;4.07;100.00;97810.41;5051420;28;20904;-80
2021/04/05 01:10:50;;;;;;;13.20;7.33;;;3.10;99.30;;;3.87;100.00;97810.75;5061053;28;20800;-79
2021/04/05 01:13:20;;;;;;;13.00;6.30;;;2.90;99.50;;;3.96;100.00;97808.06;5052208;28;20460;-80
2021/04/05 01:15:48;;;;;;;12.90;6.47;;;3.00;99.90;;;4.03;100.00;97795.34;5060497;28;20437;-79
2021/04/05 01:18:17;;;;;;;13.67;6.80;;;3.10;99.60;;;4.09;100.00;97784.41;5056353;28;20457;-79
2021/04/05 01:20:47;;;;;;;10.30;6.40;;;3.10;99.20;;;4.05;100.00;97781.31;5051662;28;20588;-79
2021/04/05 01:23:17;;;;;;;18.30;7.13;;;3.20;99.00;;;4.00;100.00;97777.53;5051817;28;20531;-79
2021/04/05 01:25:47;;;;;;;13.00;6.73;;;3.10;99.20;;;4.07;100.00;97791.50;5052862;28;20559;-79
2021/04/05 01:28:15;;;;;;;19.67;6.30;;;3.10;99.10;;;4.12;100.00;97791.03;5052505;28;20457;-79
2021/04/05 01:30:46;;;;;;;13.67;5.83;;;3.30;99.60;;;4.12;100.00;97783.28;5055995;28;20457;-79
2021/04/05 01:33:18;;;;;;;14.57;6.43;;;3.20;99.10;;;4.11;100.00;97784.25;5053008;28;20452;-79
2021/04/05 01:35:49;;;;;;;21.53;6.90;;;3.20;99.20;;;4.14;100.00;97784.75;5056173;28;20469;-79
2021/04/05 01:38:23;;;;;;;21.90;6.03;;;3.20;99.40;;;4.18;100.00;97774.91;5058353;28;20441;-80
2021/04/05 01:40:54;;;;;;;12.83;6.20;;;3.30;99.40;;;4.20;100.00;97768.59;5050475;28;20869;-80
2021/04/05 01:43:23;;;;;;;15.70;6.40;;;3.30;99.60;;;4.22;100.00;97755.53;5049118;28;20921;-79
2021/04/05 01:45:54;;;;;;;12.27;6.00;;;3.30;99.10;;;4.24;100.00;97753.56;5050756;28;20530;-79
2021/04/05 01:48:24;;;;;;;17.83;6.90;;;3.40;99.70;;;4.16;100.00;97746.63;5051825;28;20449;-79
2021/04/05 01:50:58;;;;;;;14.30;6.03;;;3.20;99.50;;;4.15;100.00;97739.00;5052948;28;20441;-80
2021/04/05 01:53:27;;;;;;;16.03;5.70;;;3.20;99.80;;;4.16;100.00;97735.44;5055099;28;20444;-79
2021/04/05 01:55:59;;;;;;;12.63;5.40;;;3.20;99.90;;;4.15;100.00;97726.88;5056457;28;20453;-79
2021/04/05 01:58:28;;;;;;;16.20;5.90;;;3.20;99.80;;;4.02;100.00;97726.50;5049145;28;20484;-79
2021/04/05 02:00:58;;;;;;;18.10;6.47;;;3.00;99.90;;;4.13;100.00;97707.31;5054315;28;20441;-80
2021/04/05 02:03:29;;;;;;;19.03;5.07;;;3.20;99.90;;;4.12;100.00;97703.91;5052827;28;20944;-79
2021/04/05 02:06:02;;;;;;;11.87;5.03;;;3.20;99.90;;;4.07;100.00;97690.59;5057613;28;20484;-79
2021/04/05 02:08:32;;;;;;;9.13;5.47;;;3.10;99.90;;;4.21;100.00;97687.44;5053756;28;20449;-79
2021/04/05 02:11:08;;;;;;;8.50;4.97;;;3.30;99.90;;;4.24;100.00;97688.88;5059766;28;20514;-79
2021/04/05 02:13:36;;;;;;;12.60;5.23;;;3.30;99.90;;;4.30;100.00;97683.13;5049026;28;20472;-79
2021/04/05 02:16:05;;;;;;;11.30;5.20;;;3.40;99.90;;;4.29;100.00;97687.47;5056152;28;20437;-79
2021/04/05 02:18:33;;;;;;;8.27;4.97;;;3.40;99.90;;;4.25;100.00;97682.75;5055636;28;20515;-79
2021/04/05 02:21:02;;;;;;;18.20;5.30;;;3.40;99.90;;;4.28;100.00;97672.91;5049567;28;21150;-79
2021/04/05 02:23:31;;;;;;;12.20;5.53;;;3.50;99.90;;;4.30;100.00;97676.16;5054882;28;20452;-79
2021/04/05 02:26:06;;;;;;;13.87;4.97;;;3.50;99.90;;;4.33;100.00;97669.84;5051903;28;20489;-80
2021/04/05 02:28:40;;;;;;;13.60;5.33;;;3.50;99.90;;;4.36;100.00;97665.19;5052945;28;20433;-80
2021/04/05 02:31:10;;;;;;;8.50;4.50;;;3.50;99.90;;;4.33;100.00;97665.50;5051796;28;20438;-80
2021/04/05 02:33:38;;;;;;;21.03;5.60;;;3.50;99.90;;;4.38;100.00;97663.22;5052614;28;20441;-79
2021/04/05 02:36:10;;;;;;;14.00;5.27;;;3.60;99.90;;;4.42;100.00;97649.00;5053665;28;20933;-79
2021/04/05 02:38:41;;;;;;;14.47;4.57;;;3.50;99.90;;;4.41;100.00;97637.03;5053078;28;20436;-79
2021/04/05 02:41:09;;;;;;;25.20;5.70;;;3.50;99.90;;;4.42;100.00;97632.66;5054093;28;20480;-79
2021/04/05 02:43:38;;;;;;;16.23;6.10;;;3.50;99.90;;;4.48;100.00;97621.66;5052342;28;20937;-80
2021/04/05 02:46:11;;;;;;;12.90;5.00;;;3.70;99.90;;;4.50;100.00;97620.56;5051262;28;20878;-79
2021/04/05 02:48:44;;;;;;;15.27;5.93;;;3.70;99.90;;;4.51;100.00;97613.63;5047414;28;20455;-79
2021/04/05 02:51:13;;;;;;;18.70;6.10;;;3.60;99.90;;;4.55;100.00;97615.69;5049524;28;20441;-79
2021/04/05 02:53:46;;;;;;;12.07;5.90;;;3.60;99.90;;;4.57;100.00;97605.19;5048895;28;20472;-79
2021/04/05 02:56:16;;;;;;;11.90;6.40;;;3.70;99.90;;;4.61;100.00;97600.50;5047797;28;20454;-79
2021/04/05 02:58:47;;;;;;;11.47;5.50;;;3.70;99.90;;;4.68;100.00;97597.13;5053024;28;20452;-79
2021/04/05 03:01:15;;;;;;;19.00;6.87;;;3.80;99.90;;;4.69;100.00;97596.13;5048989;28;20468;-79
2021/04/05 03:03:47;;;;;;;23.70;7.40;;;3.90;99.90;;;4.72;100.00;97592.44;5049189;28;20928;-79
2021/04/05 03:06:18;;;;;;;14.77;6.80;;;3.90;99.90;;;4.76;100.00;97588.53;5047644;28;20586;-79
2021/04/05 03:08:47;;;;;;;17.13;6.73;;;3.90;99.90;;;4.77;100.00;97590.16;5045064;28;20805;-79
2021/04/05 03:11:19;;;;;;;20.87;6.10;;;3.90;99.90;;;4.80;100.00;97579.47;5055901;28;20890;-79
2021/04/05 03:13:46;;;;;;;15.10;6.50;;;4.00;99.90;;;4.85;100.00;97567.66;5049940;28;20599;-79
2021/04/05 03:16:19;;;;;;;17.70;6.70;;;4.10;99.90;;;4.91;100.00;97568.78;5050646;28;20456;-79
2021/04/05 03:18:50;;;;;;;15.43;6.30;;;4.10;99.90;;;4.92;100.00;97562.63;5050627;28;20527;-79
2021/04/05 03:21:21;;;;;;;18.30;6.90;;;4.10;99.90;;;4.95;100.00;97555.34;5052131;28;20505;-79
2021/04/05 03:23:50;;;;;;;12.83;6.30;;;4.10;99.90;;;4.95;100.00;97564.91;5047528;28;20928;-79
2021/04/05 03:26:18;;;;;;;22.00;7.73;;;4.10;99.90;;;4.99;100.00;97558.41;5047914;28;20524;-79
2021/04/05 03:28:46;;;;;;;16.43;6.80;;;4.10;99.90;;;4.97;100.00;97547.38;5051123;28;20459;-79
2021/04/05 03:31:18;;;;;;;23.60;7.53;;;4.10;99.90;;;4.90;100.00;97549.03;5045012;28;20473;-79
2021/04/05 03:33:52;;;;;;;16.37;6.93;;;4.00;99.90;;;4.92;100.00;97552.28;5051948;28;20463;-79
2021/04/05 03:36:27;;;;;;;11.07;6.50;;;4.00;99.90;;;5.00;100.00;97553.06;5047598;28;20933;-79
2021/04/05 03:38:57;;;;;;;13.83;7.33;;;4.10;99.90;;;5.04;100.00;97538.81;5055762;28;20460;-79
2021/04/05 03:41:37;;;;;;;14.97;6.30;;;4.20;99.90;;;5.05;100.00;97526.66;5049382;28;20542;-79
2021/04/05 03:44:30;;;;;;;13.30;6.90;;;4.30;99.90;;;5.06;100.00;97528.28;5049668;28;20805;-79
2021/04/05 03:47:08;;;;;;;11.80;6.10;;;4.30;99.90;;;5.14;100.00;97535.25;5043235;28;20500;-81
2021/04/05 03:49:44;;;;;;;19.10;7.60;;;4.30;99.90;;;5.17;100.00;97522.75;5052839;28;20464;-79
2021/04/05 03:52:20;;;;;;;16.37;7.27;;;4.40;99.90;;;5.15;100.00;97503.97;5060442;28;20452;-80
2021/04/05 03:54:55;;;;;;;26.17;6.97;;;4.40;99.90;;;5.20;100.00;97501.69;5057447;28;20459;-79
2021/04/05 03:57:29;;;;;;;14.03;7.47;;;4.40;99.90;;;5.22;100.00;97486.78;5057000;28;20820;-79
2021/04/05 04:00:07;;;;;;;16.00;6.90;;;4.50;99.90;;;5.26;100.00;97477.69;5063023;28;20494;-80
2021/04/05 04:02:44;;;;;;;16.37;7.77;;;4.50;99.90;;;5.28;100.00;97485.28;5057698;28;20521;-79
2021/04/05 04:05:19;;;;;;;13.10;7.30;;;4.50;99.90;;;5.27;100.00;97473.31;5057945;28;20463;-79
2021/04/05 04:07:49;;;;;;;26.17;9.23;;;4.50;99.90;;;5.32;100.00;97476.22;5063674;28;20466;-79
2021/04/05 04:10:19;;;;;;;17.47;8.60;;;4.50;99.90;;;5.34;100.00;97472.50;5057435;28;20522;-79
2021/04/05 04:12:49;;;;;;;20.50;8.43;;;4.60;99.90;;;5.34;100.00;97469.91;5053677;28;20458;-79
2021/04/05 04:15:18;;;;;;;20.20;9.30;;;4.50;99.90;;;5.38;100.00;97465.97;5061096;28;20537;-79
2021/04/05 04:17:47;;;;;;;19.10;10.37;;;4.60;99.90;;;5.40;100.00;97461.44;5064368;28;20460;-79
2021/04/05 04:20:18;;;;;;;22.20;10.83;;;4.70;99.90;;;5.41;100.00;97449.28;5052166;28;20452;-79
2021/04/05 04:22:47;;;;;;;23.00;9.53;;;4.70;99.90;;;5.40;100.00;97453.66;5055274;28;20461;-79
2021/04/05 04:25:17;;;;;;;27.53;11.37;;;4.80;99.90;;;5.44;100.00;97454.94;5058020;28;20876;-79
2021/04/05 04:27:45;;;;;;;24.87;10.93;;;4.80;99.90;;;5.47;100.00;97452.00;5059993;28;20453;-79
2021/04/05 04:30:31;;;;;;;18.23;11.10;;;4.90;99.90;;;5.52;100.00;97449.69;5054064;28;20486;-79
2021/04/05 04:33:01;;;;;;;22.87;10.33;;;4.90;99.90;;;5.57;100.00;97450.00;5048226;28;20551;-79
2021/04/05 04:35:29;;;;;;;29.63;12.40;;;4.90;99.90;;;5.58;100.00;97449.03;5048125;28;20546;-79
2021/04/05 04:37:57;;;;;;;29.53;11.87;;;4.90;99.90;;;5.62;100.00;97446.09;5057395;28;20976;-79
2021/04/05 04:40:28;;;;;;;27.50;12.53;;;5.00;99.90;;;5.62;100.00;97438.31;5053227;28;20493;-79
2021/04/05 04:42:58;;;;;;;30.13;11.43;;;5.00;99.90;;;5.66;100.00;97431.81;5048365;28;20465;-80
2021/04/05 04:45:27;;;;;;;22.60;11.10;;;5.00;99.90;;;5.60;100.00;97428.09;5053270;28;20505;-79
2021/04/05 04:47:56;;;;;;;31.50;11.67;;;5.00;99.90;;;5.66;100.00;97430.00;5055961;28;20468;-79
2021/04/05 04:50:28;;;;;;;24.37;11.60;;;5.00;99.90;;;5.69;100.00;97423.69;5058690;28;20514;-79
2021/04/05 04:52:57;;;;;;;29.37;11.43;;;5.00;99.90;;;5.73;100.00;97411.97;5053364;28;20489;-80
2021/04/05 04:55:27;;;;;;;24.37;11.53;;;5.00;99.90;;;5.76;100.00;97416.84;5056281;28;20458;-79
2021/04/05 04:57:56;;;;;;;19.83;11.33;;;5.10;99.90;;;5.77;100.00;97416.66;5046991;28;20551;-79
2021/04/05 05:00:26;;;;;;;31.23;10.93;;;5.10;99.90;;;5.77;100.00;97413.25;5049895;28;20876;-79
2021/04/05 05:02:56;;;;;;;32.20;12.20;;;5.10;99.90;;;5.77;100.00;97416.66;5060174;28;20576;-79
2021/04/05 05:05:30;;;;;;;28.70;11.20;;;5.10;99.90;;;5.79;100.00;97421.69;5048437;28;20487;-79
2021/04/05 05:07:59;;;;;;;34.93;12.83;;;5.10;99.90;;;5.80;100.00;97410.31;5051750;28;20457;-79
2021/04/05 05:10:28;;;;;;;29.07;12.77;;;5.10;99.90;;;5.80;100.00;97412.91;5054088;28;20466;-79
2021/04/05 05:12:56;;;;;;;25.33;11.93;;;5.10;99.90;;;5.82;100.00;97408.38;5050950;28;20452;-79
2021/04/05 05:15:25;;;;;;;19.30;12.00;;;5.10;99.90;;;5.83;100.00;97397.03;5053373;28;20512;-79
2021/04/05 05:17:53;;;;;;;26.33;13.43;;;5.10;99.90;;;5.86;100.00;97396.69;5053576;28;20533;-79
2021/04/05 05:20:22;;;;;;;28.93;12.43;;;5.20;99.90;;;5.90;100.00;97395.38;5050101;28;20875;-79
2021/04/05 05:22:58;;;;;;;28.40;13.33;;;5.20;99.90;;;5.87;100.00;97401.69;5049606;28;20453;-79
2021/04/05 05:25:27;;;;;;;28.63;13.10;;;5.20;99.80;;;5.91;100.00;97395.19;5052313;28;20456;-79
2021/04/05 05:28:00;;;;;;;22.00;10.40;;;5.20;99.90;;;5.87;100.00;97393.91;5052298;28;20989;-79
2021/04/05 05:30:29;;;;;;;18.97;12.03;;;5.10;99.80;;;5.89;100.00;97381.59;5057736;28;20456;-79
2021/04/05 05:33:01;;;;;;;25.63;12.80;;;5.20;99.80;;;5.90;100.00;97374.63;5054837;28;20461;-79
2021/04/05 05:35:28;;;;;;;32.83;12.63;;;5.20;99.60;;;5.90;100.00;97377.22;5056439;28;20459;-79
2021/04/05 05:38:01;;;;;;;22.50;10.43;;;5.10;99.60;;;5.90;100.00;97370.22;5055582;28;20462;-79
2021/04/05 05:40:33;;;;;;;22.63;11.50;;;5.20;99.20;;;5.90;100.00;97378.00;5052457;28;20476;-79
2021/04/05 05:43:32;;;;;;;25.47;11.63;;;5.20;99.30;;;5.91;100.00;97386.59;5055174;28;20472;-79
2021/04/05 05:46:20;;;;;;;26.23;9.83;;;5.10;99.10;;;5.93;100.00;97374.28;5048012;28;20503;-79
2021/04/05 05:49:16;;;;;;;21.13;10.43;;;5.20;99.00;;;5.92;100.00;97357.91;5046593;28;20488;-79
2021/04/05 05:52:09;;;;;;;22.63;12.47;;;5.20;99.00;;;5.96;100.00;97368.72;5048137;28;20461;-79
2021/04/05 05:55:18;;;;;;;33.43;11.73;;;5.20;99.10;;;6.01;100.00;97358.63;5056159;28;20498;-79
2021/04/05 05:58:04;;;;;;;23.10;12.07;;;5.30;99.30;;;6.00;100.00;97359.63;5050058;28;20476;-79
2021/04/05 06:00:40;;;;;;;28.20;12.60;;;5.30;99.40;;;6.01;100.00;97363.81;5058568;28;20456;-79
2021/04/05 06:03:32;;;;;;;23.97;11.47;;;5.30;99.50;;;6.01;100.00;97363.81;5045670;28;20510;-79
2021/04/05 06:06:17;;;;;;;23.70;12.83;;;5.30;99.50;;;6.02;100.00;97355.03;5052045;28;20503;-80
2021/04/05 06:09:12;;;;;;;19.20;11.23;;;5.30;99.70;;;6.02;100.00;97357.66;5051562;28;20461;-79
2021/04/05 06:11:52;;;;;;;30.60;12.87;;;5.30;99.80;;;5.99;100.00;97355.41;5044629;28;20457;-79
2021/04/05 06:14:39;;;;;;;24.20;12.20;;;5.20;99.90;;;5.94;100.00;97336.94;5050224;28;20483;-79
2021/04/05 06:17:22;;;;;;;29.83;13.33;;;5.20;99.90;;;5.90;100.00;97340.91;5048377;28;20469;-79
2021/04/05 06:19:51;;;;;;;27.07;12.13;;;5.10;99.90;;;5.89;100.00;97344.47;5048310;28;20469;-79
2021/04/05 06:22:41;;;;;;;23.70;11.90;;;5.10;99.90;;;5.93;100.00;97348.31;5054807;28;20449;-79
2021/04/05 06:25:24;;;;;;;24.83;12.30;;;5.20;99.90;;;5.91;100.00;97342.47;5048255;28;20961;-79
2021/04/05 06:28:06;;;;;;;22.30;12.37;;;5.20;99.90;;;5.87;100.00;97346.41;5047834;28;20945;-79
2021/04/05 06:30:49;;;;;;;29.23;12.70;;;5.10;99.90;;;5.91;100.00;97342.47;5045203;28;20462;-79
2021/04/05 06:33:30;;;;;;;31.73;13.00;;;5.20;99.90;;;5.86;100.00;97342.22;5047035;28;20871;-79
2021/04/05 06:36:21;;;;;;;35.03;14.70;;;5.10;99.90;;;5.87;100.00;97341.22;5047151;28;20468;-79
2021/04/05 06:38:57;;;;;;;23.93;12.27;;;5.10;99.90;;;5.88;100.00;97348.84;5042736;28;20453;-78
2021/04/05 06:42:10;;;;;;;32.37;13.13;;;5.10;99.90;;;5.91;100.00;97343.31;5053944;28;20488;-80
2021/04/05 06:45:29;;;;;;;34.87;15.07;;;5.10;99.90;;;5.96;100.00;97341.00;5048437;28;20894;-79
2021/04/05 06:48:58;;;;;;;30.17;14.57;;;5.20;99.90;;;5.97;100.00;97337.41;5048356;28;20462;-79
2021/04/05 06:52:06;;;;;;;28.60;13.40;;;5.20;99.90;;;5.95;100.00;97328.19;5044479;28;20456;-79
2021/04/05 06:55:04;;;;;;;28.73;13.70;;;5.10;99.90;;;5.94;100.00;97322.19;5042893;28;20458;-79
2021/04/05 06:57:59;;;;;;;34.13;15.67;;;5.20;99.90;;;5.98;100.00;97317.44;5051203;28;20464;-79
2021/04/05 07:00:40;;;;;;;26.67;14.40;;;5.30;99.90;;;5.98;100.00;97312.25;5042626;28;20861;-79
2021/04/05 07:03:38;;;;;;;28.33;14.03;;;5.30;99.90;;;6.02;100.00;97310.94;5035290;28;20515;-81
2021/04/05 07:06:40;;;;;;;43.10;15.10;;;5.30;99.90;;;6.06;100.00;97307.81;5047641;28;20481;-82
2021/04/05 07:09:19;;;;;;;29.10;13.23;;;5.30;99.90;;;6.11;100.00;97316.88;5058233;28;20820;-81
2021/04/05 07:12:17;;;;;;;27.83;14.80;;;5.40;99.90;;;6.12;100.00;97329.66;5050196;28;21233;-81
2021/04/05 07:15:24;;;;;;;29.27;14.37;;;5.40;99.90;;;6.04;100.00;97314.97;5048721;28;20461;-79
2021/04/05 07:18:09;;;;;;;32.33;14.60;;;5.20;99.90;;;6.10;100.00;97330.81;5040543;28;20992;-81
2021/04/05 07:20:58;;;;;;;33.30;15.80;;;5.30;99.90;;;6.17;100.00;97342.09;5046471;28;20449;-81
2021/04/05 07:23:58;;;;;;;26.00;12.00;;;5.40;99.90;;;6.17;100.00;97340.31;5050840;28;20467;-81
2021/04/05 07:26:36;;;;;;;29.93;12.30;;;5.40;99.90;;;6.18;100.00;97338.53;5052234;28;20476;-81
2021/04/05 07:29:13;;;;;;;25.70;13.57;;;5.40;99.90;;;6.20;100.00;97337.38;5049645;28;20441;-82
2021/04/05 07:31:54;;;;;;;24.73;12.57;;;5.40;99.90;;;6.28;100.00;97329.47;5051571;28;20449;-82
2021/04/05 07:34:35;;;;;;;30.73;15.10;;;5.50;99.90;;;6.32;100.00;97335.94;5050623;28;20437;-82
2021/04/05 07:37:31;;;;;;;27.30;13.20;;;5.50;99.90;;;6.37;100.00;97333.63;5044129;28;20448;-82
2021/04/05 07:40:09;;;;;;;27.83;14.37;;;5.60;99.90;;;6.46;100.00;97323.94;5043323;28;20456;-82
2021/04/05 07:42:47;;;;;;;26.07;13.80;;;5.70;99.90;;;6.52;100.00;97305.88;5007024;28;20458;-82
2021/04/05 07:45:30;;;;;;;25.30;13.40;;;5.80;99.90;;;6.62;100.00;97304.78;5006939;28;20465;-82
2021/04/05 07:48:12;;;;;;;24.83;13.20;;;5.90;99.90;;;6.70;100.00;97308.09;5011888;28;20751;-82
2021/04/05 07:50:51;;;;;;;23.67;13.00;;;6.00;99.90;;;6.71;100.00;97294.13;5006022;28;20497;-82
2021/04/05 07:53:27;;;;;;;35.03;14.17;;;6.10;99.90;;;6.74;100.00;97305.94;5010176;28;20532;-82
2021/04/05 07:56:02;;;;;;;27.63;13.60;;;6.10;99.90;;;6.77;100.00;97308.19;5010974;28;20854;-81
2021/04/05 07:58:54;;;;;;;28.03;12.97;;;6.10;99.90;;;6.82;100.00;97316.22;5007630;28;20443;-81
2021/04/05 08:01:29;;;;;;;25.93;12.33;;;6.10;99.90;;;6.86;100.00;97312.28;5011921;28;20454;-82
2021/04/05 08:04:20;;;;;;;23.17;12.27;;;6.20;99.90;;;6.88;100.00;97311.13;5015399;28;20597;-82
2021/04/05 08:07:04;;;;;;;31.37;13.00;;;6.20;99.90;;;6.94;100.00;97305.19;5007680;28;20836;-81
2021/04/05 08:09:43;;;;;;;26.67;13.80;;;6.20;99.90;;;6.97;100.00;97306.63;5008463;28;20451;-81
2021/04/05 08:12:38;;;;;;;27.23;12.17;;;6.30;99.90;;;6.99;100.00;97304.66;4998828;28;20499;-82
2021/04/05 08:15:24;;;;;;;27.40;13.73;;;6.20;99.90;;;6.95;100.00;97285.19;5018467;28;20978;-82
2021/04/05 08:18:14;;;;;;;24.97;12.30;;;6.20;99.90;;;6.91;100.00;97284.75;5008363;28;20458;-82
2021/04/05 08:20:53;;;;;;;22.03;12.60;;;6.10;99.90;;;6.93;100.00;97282.00;5009265;28;20447;-82
2021/04/05 08:23:39;;;;;;;21.60;10.70;;;6.10;99.90;;;6.86;100.00;97276.72;5010007;28;20943;-81
2021/04/05 08:26:28;;;;;;;28.90;12.33;;;6.10;99.90;;;6.85;100.00;97269.09;5006564;28;21022;-81
2021/04/05 08:29:08;;;;;;;31.80;12.20;;;6.10;99.90;;;6.88;100.00;97279.94;5009941;28;20438;-81
2021/04/05 08:31:56;;;;;;;31.33;12.90;;;6.10;99.90;;;6.95;100.00;97277.41;5006797;28;20958;-82
2021/04/05 08:34:53;;;;;;;23.03;14.07;;;6.20;99.90;;;6.88;100.00;97289.50;5007157;28;20832;-81
2021/04/05 08:37:36;;;;;;;27.60;12.40;;;6.10;99.90;;;6.91;100.00;97281.34;5009651;28;20493;-81
2021/04/05 08:40:11;;;;;;;33.43;12.93;;;6.10;99.90;;;6.89;100.00;97283.34;5012238;28;20843;-83
2021/04/05 08:42:49;;;;;;;77.80;32.27;;;6.10;99.90;;;6.88;100.00;97279.94;5050866;28;20451;-83
2021/04/05 08:45:22;;;;;;;24.53;12.80;;;6.10;99.90;;;6.96;100.00;97277.25;5046426;28;20492;-84
2021/04/05 08:48:07;;;;;;;25.60;12.23;;;6.20;99.90;;;6.97;100.00;97285.84;5051391;28;21129;-83
2021/04/05 08:50:42;;;;;;;35.60;12.53;;;6.20;99.90;;;6.96;100.00;97284.22;5046859;28;20449;-83
2021/04/05 08:53:12;;;;;;;24.13;10.67;;;6.20;99.90;;;6.97;100.00;97270.25;5050770;28;20456;-83
2021/04/05 08:55:44;;;;;;;32.93;11.80;;;6.20;99.90;;;7.04;100.00;97271.13;5054583;28;20449;-83
2021/04/05 08:58:26;;;;;;;22.13;11.13;;;6.30;99.90;;;7.13;100.00;97282.19;5044999;28;20469;-83
2021/04/05 09:01:01;;;;;;;29.87;12.90;;;6.40;99.90;;;7.08;100.00;97278.34;5051855;28;20560;-83
2021/04/05 09:03:33;;;;;;;27.60;12.83;;;6.40;99.90;;;7.15;100.00;97283.63;5042379;28;20498;-83
2021/04/05 09:06:08;;;;;;;22.07;10.50;;;6.50;99.90;;;7.06;100.00;97277.75;5051514;28;20457;-83
2021/04/05 09:08:36;;;;;;;26.10;11.80;;;6.30;99.90;;;7.12;100.00;97273.59;5050339;28;20456;-83
2021/04/05 09:11:07;;;;;;;16.77;9.20;;;6.40;99.90;;;7.06;100.00;97274.34;5048121;28;20469;-83
2021/04/05 09:13:44;;;;;;;31.47;12.07;;;6.40;99.90;;;7.05;100.00;97270.13;5047914;28;20468;-83
2021/04/05 09:16:58;;;;;;;29.37;12.37;;;6.30;99.90;;;7.05;100.00;97281.31;5049660;28;20467;-83
2021/04/05 09:20:15;;;;;;;20.40;12.33;;;6.30;99.90;;;6.99;100.00;97273.44;5052076;28;20449;-83
2021/04/05 09:23:26;;;;;;;22.73;10.60;;;6.20;99.90;;;7.06;100.00;97272.53;5037069;28;20804;-82
2021/04/05 09:26:19;;;;;;;24.53;10.10;;;6.30;99.90;;;6.96;100.00;97279.03;5036339;28;21019;-82
2021/04/05 09:29:11;;;;;;;25.90;11.37;;;6.20;99.90;;;6.96;100.00;97273.81;5052193;28;20455;-83
2021/04/05 09:32:41;;;;;;;19.00;10.13;;;6.20;99.90;;;6.86;100.00;97281.09;5049611;28;20482;-83
2021/04/05 09:35:51;;;;;;;19.37;10.20;;;6.10;99.90;;;6.76;100.00;97285.78;5048359;28;20456;-83
2021/04/05 09:38:42;;;;;;;18.33;8.97;;;6.00;99.90;;;6.76;100.00;97281.41;5056815;28;20797;-83
2021/04/05 09:41:55;;;;;;;19.93;10.63;;;6.00;99.90;;;6.76;100.00;97280.59;5052841;28;20496;-84
2021/04/05 09:44:58;;;;;;;16.17;8.27;;;6.00;99.90;;;6.80;100.00;97289.63;5054728;28;20456;-83
2021/04/05 09:47:55;;;;;;;27.10;11.30;;;6.00;99.90;;;6.79;100.00;97291.44;5050027;28;20496;-82
2021/04/05 09:50:38;;;;;;;22.57;10.03;;;6.00;99.90;;;6.79;100.00;97280.22;5050979;28;21038;-83
2021/04/05 09:53:35;;;;;;;21.03;9.20;;;6.00;99.90;;;6.83;100.00;97281.47;5051355;28;21022;-83
2021/04/05 09:56:09;;;;;;;20.93;9.40;;;6.00;99.90;;;6.87;100.00;97282.72;5044874;28;20494;-83
2021/04/05 09:58:45;;;;;;;16.30;9.80;;;6.10;99.90;;;6.82;100.00;97291.06;5054344;28;20469;-83
2021/04/05 10:01:21;;;;;;;68.90;27.40;;;6.10;99.90;;;6.79;100.00;97281.03;5051536;28;20464;-86
2021/04/05 10:03:56;;;;;;;19.23;9.10;;;6.10;99.90;;;6.78;100.00;97276.00;5048314;28;20472;-83
2021/04/05 10:06:29;;;;;;;18.27;8.50;;;6.00;99.90;;;6.77;100.00;97280.41;5050994;28;20501;-84
2021/04/05 10:08:59;;;;;;;15.43;7.63;;;6.00;99.90;;;6.78;100.00;97263.00;5050942;28;20460;-82
2021/04/05 10:11:31;;;;;;;14.57;8.57;;;6.00;99.90;;;6.79;100.00;97277.63;5049200;28;20465;-82
2021/04/05 10:14:05;;;;;;;17.50;9.10;;;6.00;99.90;;;6.79;100.00;97275.03;5053466;28;20704;-82
2021/04/05 10:16:38;;;;;;;18.73;8.57;;;6.00;99.90;;;6.84;100.00;97254.47;5052638;28;20473;-82
2021/04/05 10:19:10;;;;;;;12.70;7.33;;;6.20;99.90;;;6.84;100.00;97267.47;5054015;28;20457;-82
2021/04/05 10:21:44;;;;;;;15.40;7.40;;;6.20;99.90;;;6.81;100.00;97267.84;5052595;28;20498;-82
2021/04/05 10:24:19;;;;;;;18.70;8.80;;;6.10;99.90;;;6.74;100.00;97267.78;5054522;28;20832;-82
2021/04/05 10:26:53;;;;;;;16.50;8.17;;;6.00;99.90;;;6.80;100.00;97245.47;5045120;28;20496;-82
2021/04/05 10:29:24;;;;;;;11.53;7.70;;;6.10;99.90;;;6.77;100.00;97240.66;5048569;28;20509;-82
2021/04/05 10:31:53;;;;;;;23.80;8.27;;;6.00;99.90;;;6.75;100.00;97235.63;5051725;28;20999;-82
2021/04/05 10:34:26;;;;;;;18.30;7.93;;;6.00;99.90;;;6.80;100.00;97232.47;5057590;28;20815;-82
2021/04/05 10:37:01;;;;;;;18.37;7.40;;;6.00;99.90;;;6.84;100.00;97246.69;5045431;28;20464;-83
2021/04/05 10:39:29;;;;;;;11.93;6.37;;;6.00;99.90;;;6.87;100.00;97235.97;5054549;28;20472;-82
2021/04/05 10:42:02;;;;;;;13.40;7.20;;;6.10;99.90;;;6.89;100.00;97239.16;5058891;28;20484;-83
2021/04/05 10:44:41;;;;;;;15.53;7.40;;;6.10;99.90;;;6.90;100.00;97243.38;5048385;28;20465;-82
2021/04/05 10:47:20;;;;;;;12.77;7.30;;;6.10;99.90;;;6.87;100.00;97231.53;5051741;28;20504;-83
2021/04/05 10:49:52;;;;;;;11.53;6.13;;;6.10;99.90;;;6.86;100.00;97237.75;5052351;28;20475;-82
2021/04/05 10:52:27;;;;;;;12.17;6.83;;;6.10;99.90;;;6.88;100.00;97237.53;5051549;28;20806;-83
2021/04/05 10:54:58;;;;;;;16.07;6.03;;;6.10;99.90;;;6.80;100.00;97235.09;5050344;28;20472;-83
2021/04/05 10:57:34;;;;;;;10.37;5.63;;;6.00;99.90;;;6.85;100.00;97222.31;5052333;28;20952;-82